Аэропорт: Наримановка. Костанай

ICAO: UAUU

METAR:
2019/01/21 23:00
UAUU 212300Z 19003MPS CAVOK M20/M22 Q1022 R33/350153 NOSIG RMK QFE751/1001
METAR:
2018/12/31 12:06
TAF TAF UAUU 312000Z 3112/0106 18005MPS 3000 BR SCT006 BKN010 
      TEMPO 3121/0106 0400 FZFG VV002